createdAt,value
2018-03-04T00:02:20.211Z,52.84
2018-03-04T00:04:47.757Z,53.02
2018-03-04T00:07:15.278Z,52.78
2018-03-04T00:09:42.872Z,52.86
2018-03-04T00:12:10.464Z,52.99
2018-03-04T00:14:38.164Z,53.12
2018-03-04T00:17:06.028Z,53.27
2018-03-04T00:19:33.588Z,53.00
2018-03-04T00:22:01.147Z,53.15
2018-03-04T00:24:28.700Z,53.25
2018-03-04T00:26:56.259Z,53.20
2018-03-04T00:29:23.808Z,53.40
2018-03-04T00:31:51.354Z,53.37
2018-03-04T00:34:19.146Z,53.65
2018-03-04T00:36:46.693Z,53.73
2018-03-04T00:39:14.295Z,53.77
2018-03-04T00:41:41.857Z,53.74
2018-03-04T00:44:09.467Z,53.74
2018-03-04T00:46:37.174Z,53.90
2018-03-04T00:49:04.734Z,53.84
2018-03-04T00:51:32.287Z,53.93
2018-03-04T00:54:00.462Z,53.88
2018-03-04T00:56:28.008Z,53.87
2018-03-04T00:58:55.574Z,53.87
2018-03-04T01:01:23.149Z,54.03
2018-03-04T01:03:50.681Z,53.96
2018-03-04T01:06:18.318Z,54.13
2018-03-04T01:08:46.137Z,54.24
2018-03-04T01:11:13.678Z,54.35
2018-03-04T01:13:41.223Z,54.17
2018-03-04T01:16:08.783Z,54.05
2018-03-04T01:18:36.349Z,54.42
2018-03-04T01:21:03.895Z,54.63
2018-03-04T01:23:31.459Z,54.71
2018-03-04T01:25:59.119Z,54.73
2018-03-04T01:28:26.709Z,54.67
2018-03-04T01:30:54.271Z,54.45
2018-03-04T01:33:21.803Z,54.47
2018-03-04T01:35:49.385Z,54.68
2018-03-04T01:38:16.941Z,54.70
2018-03-04T01:40:44.506Z,54.95
2018-03-04T01:43:12.391Z,54.76
2018-03-04T01:45:40.012Z,54.79
2018-03-04T01:48:07.586Z,54.78
2018-03-04T01:50:35.153Z,54.78
2018-03-04T01:53:03.150Z,54.77
2018-03-04T01:55:30.717Z,54.91
2018-03-04T01:57:58.273Z,55.09
2018-03-04T02:00:25.974Z,55.26
2018-03-04T02:02:53.796Z,55.39
2018-03-04T02:05:21.370Z,55.28
2018-03-04T02:07:48.958Z,55.52
2018-03-04T02:10:16.782Z,55.58
2018-03-04T02:12:44.334Z,55.58
2018-03-04T02:15:11.892Z,55.49
2018-03-04T02:17:39.608Z,55.65
2018-03-04T02:20:07.156Z,55.77
2018-03-04T02:22:34.700Z,55.69
2018-03-04T02:25:02.352Z,55.42
2018-03-04T02:27:29.886Z,55.47
2018-03-04T02:29:57.790Z,55.49
2018-03-04T02:32:25.338Z,55.59
2018-03-04T02:34:52.904Z,55.68
2018-03-04T02:37:20.534Z,55.57
2018-03-04T02:39:48.114Z,55.63
2018-03-04T02:42:15.678Z,55.69
2018-03-04T02:44:43.568Z,55.76
2018-03-04T02:47:11.100Z,55.95
2018-03-04T02:49:38.672Z,55.95
2018-03-04T02:52:06.243Z,56.03
2018-03-04T02:54:34.108Z,56.01
2018-03-04T02:57:01.684Z,55.89
2018-03-04T02:59:29.264Z,55.89
2018-03-04T03:01:56.810Z,55.93
2018-03-04T03:04:24.346Z,56.00
2018-03-04T03:06:51.938Z,56.07
2018-03-04T03:09:19.546Z,56.36
2018-03-04T03:11:47.110Z,56.40
2018-03-04T03:14:14.726Z,56.32
2018-03-04T03:16:42.350Z,56.32
2018-03-04T03:19:09.890Z,56.27
2018-03-04T03:21:37.788Z,56.35
2018-03-04T03:24:05.319Z,56.25
2018-03-04T03:26:32.881Z,56.04
2018-03-04T03:29:00.458Z,56.07
2018-03-04T03:31:28.005Z,56.15
2018-03-04T03:33:55.789Z,56.44
2018-03-04T03:36:23.374Z,56.48
2018-03-04T03:38:50.934Z,56.49
2018-03-04T03:41:18.484Z,56.50
2018-03-04T03:43:46.051Z,56.25
2018-03-04T03:46:13.588Z,56.42
2018-03-04T03:48:41.133Z,56.48
2018-03-04T03:51:08.708Z,56.47
2018-03-04T03:53:36.591Z,56.57
2018-03-04T03:56:04.157Z,56.50
2018-03-04T03:58:31.824Z,56.45
2018-03-04T04:00:59.358Z,56.62
2018-03-04T04:03:26.941Z,56.70
2018-03-04T04:05:54.813Z,56.73
2018-03-04T04:08:22.330Z,57.03
2018-03-04T04:10:49.888Z,56.96
2018-03-04T04:13:17.790Z,56.81
2018-03-04T04:15:45.392Z,56.89
2018-03-04T04:18:12.940Z,57.19
2018-03-04T04:20:40.881Z,57.20
2018-03-04T04:23:08.407Z,57.17
2018-03-04T04:25:35.934Z,57.16
2018-03-04T04:28:03.513Z,57.24
2018-03-04T04:30:31.052Z,57.29
2018-03-04T04:32:58.598Z,57.39
2018-03-04T04:35:26.172Z,57.34
2018-03-04T04:37:53.725Z,57.36
2018-03-04T04:40:21.251Z,57.45
2018-03-04T04:42:48.805Z,57.40
2018-03-04T04:45:16.368Z,57.47
2018-03-04T04:47:43.923Z,57.51
2018-03-04T04:50:11.521Z,57.49
2018-03-04T04:52:39.046Z,57.28
2018-03-04T04:55:06.604Z,57.21
2018-03-04T04:57:34.498Z,57.11
2018-03-04T05:00:02.070Z,57.31
2018-03-04T05:02:29.619Z,57.42
2018-03-04T05:04:57.179Z,57.76
2018-03-04T05:07:24.707Z,57.75
2018-03-04T05:09:52.259Z,57.77
2018-03-04T05:12:19.822Z,57.87
2018-03-04T05:14:47.862Z,57.77
2018-03-04T05:17:15.429Z,57.85
2018-03-04T05:19:43.058Z,57.89
2018-03-04T05:22:10.600Z,57.78
2018-03-04T05:24:38.134Z,57.81
2018-03-04T05:27:05.773Z,57.87
2018-03-04T05:29:33.295Z,58.03
2018-03-04T05:32:00.866Z,58.09
2018-03-04T05:34:28.470Z,58.36
2018-03-04T05:36:56.298Z,58.19
2018-03-04T05:39:23.863Z,58.12
2018-03-04T05:41:51.715Z,58.15
2018-03-04T05:44:19.286Z,58.40
2018-03-04T05:46:46.823Z,58.25
2018-03-04T05:49:14.515Z,58.35
2018-03-04T05:51:42.066Z,58.62
2018-03-04T05:54:09.691Z,58.70
2018-03-04T05:56:37.261Z,58.39
2018-03-04T05:59:04.813Z,58.46
2018-03-04T06:01:32.616Z,58.49
2018-03-04T06:04:00.197Z,58.35
2018-03-04T06:06:27.733Z,58.30
2018-03-04T06:08:55.317Z,58.36
2018-03-04T06:11:23.735Z,58.31
2018-03-04T06:13:51.570Z,58.25
2018-03-04T06:16:19.123Z,58.24
2018-03-04T06:18:46.661Z,58.36
2018-03-04T06:21:14.241Z,58.12
2018-03-04T06:23:41.816Z,58.42
2018-03-04T06:26:09.362Z,58.11
2018-03-04T06:28:36.970Z,57.99
2018-03-04T06:31:04.885Z,58.13
2018-03-04T06:33:32.446Z,58.11
2018-03-04T06:36:00.010Z,57.93
2018-03-04T06:38:27.642Z,57.69
2018-03-04T06:40:55.170Z,57.72
2018-03-04T06:43:22.823Z,57.59
2018-03-04T06:45:50.421Z,57.63
2018-03-04T06:48:18.006Z,57.20
2018-03-04T06:50:45.570Z,57.09
2018-03-04T06:53:13.138Z,56.99
2018-03-04T06:55:40.698Z,56.90
2018-03-04T06:58:08.259Z,56.51
2018-03-04T07:00:35.812Z,56.30
2018-03-04T07:03:03.777Z,56.16
2018-03-04T07:05:31.333Z,56.01
2018-03-04T07:07:58.930Z,55.84
2018-03-04T07:10:27.424Z,55.75
2018-03-04T07:12:55.139Z,55.89
2018-03-04T07:15:22.751Z,55.55
2018-03-04T07:17:50.337Z,54.92
2018-03-04T07:20:18.241Z,54.38
2018-03-04T07:22:45.883Z,54.79
2018-03-04T07:25:13.446Z,54.50
2018-03-04T07:27:41.014Z,53.73
2018-03-04T07:30:08.563Z,53.34
2018-03-04T07:32:36.150Z,53.19
2018-03-04T07:35:03.730Z,52.52
2018-03-04T07:37:31.320Z,51.78
2018-03-04T07:39:58.875Z,51.58
2018-03-04T07:42:26.433Z,51.16
2018-03-04T07:44:53.998Z,51.25
2018-03-04T07:47:21.932Z,50.73
2018-03-04T07:49:49.506Z,50.80
2018-03-04T07:52:17.115Z,50.77
2018-03-04T07:54:44.729Z,50.49
2018-03-04T07:57:12.480Z,50.23
2018-03-04T07:59:40.033Z,50.05
2018-03-04T08:02:07.660Z,50.11
2018-03-04T08:04:35.218Z,49.41
2018-03-04T08:07:02.829Z,48.33
2018-03-04T08:09:30.394Z,48.39
2018-03-04T08:11:57.968Z,48.19
2018-03-04T08:14:25.704Z,48.35
2018-03-04T08:16:53.279Z,47.69
2018-03-04T08:19:20.941Z,47.33
2018-03-04T08:21:48.497Z,46.88
2018-03-04T08:24:28.082Z,46.64
2018-03-04T08:27:07.541Z,46.35
2018-03-04T08:29:35.072Z,46.96
2018-03-04T08:32:02.711Z,46.99
2018-03-04T08:34:30.290Z,46.92
2018-03-04T08:36:58.137Z,46.56
2018-03-04T08:39:25.689Z,46.02
2018-03-04T08:41:53.218Z,45.56
2018-03-04T08:44:21.121Z,45.23
2018-03-04T08:46:48.700Z,45.19
2018-03-04T08:49:16.242Z,44.60
2018-03-04T08:51:43.825Z,44.56
2018-03-04T08:54:11.389Z,45.31
2018-03-04T08:56:38.984Z,45.28
2018-03-04T08:59:06.695Z,45.16
2018-03-04T09:01:34.249Z,45.21
2018-03-04T09:04:02.196Z,45.49
2018-03-04T09:06:29.688Z,44.77
2018-03-04T09:08:57.243Z,43.40
2018-03-04T09:11:24.789Z,42.35
2018-03-04T09:13:52.350Z,41.46
2018-03-04T09:16:19.904Z,40.66
2018-03-04T09:18:47.787Z,39.30
2018-03-04T09:21:15.482Z,38.10
2018-03-04T09:23:43.305Z,36.99
2018-03-04T09:26:10.847Z,37.11
2018-03-04T09:28:38.442Z,36.70
2018-03-04T09:31:05.979Z,36.95
2018-03-04T09:33:33.558Z,37.13
2018-03-04T09:36:01.134Z,37.73
2018-03-04T09:38:29.051Z,37.95
2018-03-04T09:40:56.949Z,38.32
2018-03-04T09:43:24.500Z,39.18
2018-03-04T09:45:52.091Z,37.97
2018-03-04T09:48:19.641Z,37.77
2018-03-04T09:50:47.199Z,37.31
2018-03-04T09:53:14.761Z,37.70
2018-03-04T09:58:23.600Z,37.97
2018-03-04T10:00:51.147Z,38.72
2018-03-04T10:03:18.698Z,38.89
2018-03-04T10:05:46.264Z,37.78
2018-03-04T10:08:13.869Z,38.15
2018-03-04T10:10:41.447Z,37.87
2018-03-04T10:13:09.003Z,37.19
2018-03-04T10:15:36.629Z,36.85
2018-03-04T10:18:04.172Z,36.59
2018-03-04T10:20:31.787Z,36.45
2018-03-04T10:22:59.332Z,36.51
2018-03-04T10:25:26.983Z,36.92
2018-03-04T10:27:54.540Z,36.97
2018-03-04T10:30:22.117Z,36.38
2018-03-04T10:32:49.639Z,34.72
2018-03-04T10:35:17.180Z,33.23
2018-03-04T10:37:45.467Z,31.66
2018-03-04T10:40:13.022Z,32.02
2018-03-04T10:42:40.845Z,30.77
2018-03-04T10:45:08.402Z,30.14
2018-03-04T10:47:35.959Z,30.25
2018-03-04T10:50:03.515Z,30.40
2018-03-04T10:52:31.123Z,30.16
2018-03-04T10:54:58.636Z,29.52
2018-03-04T10:57:26.164Z,28.65
2018-03-04T10:59:53.742Z,28.80
2018-03-04T11:02:24.083Z,28.46
2018-03-04T11:04:51.676Z,28.09
2018-03-04T11:07:19.212Z,27.71
2018-03-04T11:09:46.773Z,27.96
2018-03-04T11:12:14.310Z,28.84
2018-03-04T11:14:41.877Z,29.75
2018-03-04T11:17:09.511Z,29.55
2018-03-04T11:19:37.077Z,29.50
2018-03-04T11:22:04.626Z,28.95
2018-03-04T11:24:32.179Z,28.45
2018-03-04T11:26:59.790Z,28.05
2018-03-04T11:29:27.355Z,27.76
2018-03-04T11:31:55.210Z,27.00
2018-03-04T11:34:22.742Z,26.80
2018-03-04T11:36:50.872Z,25.68
2018-03-04T11:39:18.561Z,24.55
2018-03-04T11:41:46.169Z,24.83
2018-03-04T11:44:14.029Z,24.28
2018-03-04T11:46:41.562Z,23.70
2018-03-04T11:49:09.103Z,23.74
2018-03-04T11:51:36.632Z,23.25
2018-03-04T11:54:04.480Z,23.68
2018-03-04T11:56:32.021Z,23.65
2018-03-04T11:58:59.627Z,23.75
2018-03-04T12:01:27.166Z,22.88
2018-03-04T12:03:54.948Z,22.88
2018-03-04T12:06:22.524Z,22.30
2018-03-04T12:08:50.133Z,22.02
2018-03-04T12:11:17.683Z,21.24
2018-03-04T12:13:45.198Z,20.95
2018-03-04T12:16:13.048Z,20.88
2018-03-04T12:18:40.613Z,19.88
2018-03-04T12:21:08.163Z,19.25
2018-03-04T12:23:35.694Z,18.80
2018-03-04T12:26:03.590Z,17.99
2018-03-04T12:28:31.162Z,17.88
2018-03-04T12:30:58.722Z,16.84
2018-03-04T12:33:26.349Z,16.81
2018-03-04T12:35:53.903Z,16.26
2018-03-04T12:38:21.487Z,16.11
2018-03-04T12:40:49.127Z,16.58
2018-03-04T12:43:17.810Z,17.09
2018-03-04T12:45:45.448Z,16.82
2018-03-04T12:48:13.006Z,16.87
2018-03-04T12:50:40.833Z,17.71
2018-03-04T12:53:08.410Z,17.21
2018-03-04T12:55:36.060Z,17.50
2018-03-04T12:58:03.639Z,18.28
2018-03-04T13:00:31.487Z,20.11
2018-03-04T13:02:59.007Z,21.78
2018-03-04T13:05:26.810Z,22.01
2018-03-04T13:07:56.122Z,21.65
2018-03-04T13:10:23.981Z,21.87
2018-03-04T13:12:51.562Z,23.37
2018-03-04T13:15:19.125Z,23.96
2018-03-04T13:17:47.898Z,23.98
2018-03-04T13:20:15.451Z,24.00
2018-03-04T13:22:42.996Z,22.92
2018-03-04T13:25:10.555Z,22.30
2018-03-04T13:27:38.251Z,22.55
2018-03-04T13:30:05.872Z,21.61
2018-03-04T13:32:33.472Z,21.50
2018-03-04T13:35:01.170Z,22.21
2018-03-04T13:37:28.719Z,23.69
2018-03-04T13:39:58.294Z,25.45
2018-03-04T13:42:25.857Z,25.53
2018-03-04T13:44:53.382Z,25.04
2018-03-04T13:47:21.434Z,24.26
2018-03-04T13:49:48.956Z,24.11
2018-03-04T13:52:16.989Z,27.11
2018-03-04T13:54:44.573Z,28.08
2018-03-04T13:57:12.162Z,28.69
2018-03-04T13:59:39.713Z,29.84
2018-03-04T14:02:07.339Z,31.13
2018-03-04T14:04:35.143Z,31.78
2018-03-04T14:07:03.093Z,32.03
2018-03-04T14:09:30.863Z,31.60
2018-03-04T14:11:59.256Z,30.65
2018-03-04T14:14:27.112Z,30.83
2018-03-04T14:16:54.980Z,30.77
2018-03-04T14:19:22.523Z,30.31
2018-03-04T14:21:50.875Z,30.58
2018-03-04T14:24:19.005Z,30.11
2018-03-04T14:26:46.563Z,29.91
2018-03-04T14:29:14.156Z,28.89
2018-03-04T14:31:41.768Z,28.00
2018-03-04T14:34:09.291Z,27.73
2018-03-04T14:36:37.699Z,27.29
2018-03-04T14:39:05.237Z,25.97
2018-03-04T14:41:33.224Z,25.72
2018-03-04T14:44:01.097Z,26.13
2018-03-04T14:46:28.747Z,26.03
2018-03-04T14:48:56.464Z,26.46
2018-03-04T14:51:24.149Z,25.97
2018-03-04T14:53:52.543Z,25.62
2018-03-04T14:56:20.421Z,25.51
2018-03-04T14:58:47.990Z,25.73
2018-03-04T15:01:15.553Z,25.98
2018-03-04T15:03:43.118Z,27.39
2018-03-04T15:06:10.663Z,28.52
2018-03-04T15:08:38.233Z,29.61
2018-03-04T15:11:06.103Z,30.90
2018-03-04T15:13:33.643Z,32.08
2018-03-04T15:16:01.186Z,32.56
2018-03-04T15:18:28.977Z,33.20
2018-03-04T15:20:56.886Z,33.36
2018-03-04T15:23:24.411Z,33.70
2018-03-04T15:25:51.942Z,33.90
2018-03-04T15:28:19.491Z,34.34
2018-03-04T15:30:47.058Z,34.39
2018-03-04T15:33:14.650Z,35.01
2018-03-04T15:35:42.207Z,34.98
2018-03-04T15:38:09.802Z,35.09
2018-03-04T15:40:37.455Z,35.14
2018-03-04T15:43:05.025Z,35.21
2018-03-04T15:45:32.572Z,35.39
2018-03-04T15:48:00.164Z,35.52
2018-03-04T15:50:28.035Z,35.60
2018-03-04T15:52:55.640Z,35.59
2018-03-04T15:55:23.202Z,35.74
2018-03-04T15:57:50.844Z,35.83
2018-03-04T16:00:18.453Z,35.83
2018-03-04T16:02:46.187Z,35.84
2018-03-04T16:05:13.976Z,36.04
2018-03-04T16:07:41.578Z,35.94
2018-03-04T16:10:09.634Z,36.16
2018-03-04T16:12:37.332Z,36.09
2018-03-04T16:15:06.300Z,36.08
2018-03-04T16:17:34.021Z,36.11
2018-03-04T16:20:01.764Z,36.15
2018-03-04T16:22:29.403Z,36.40
2018-03-04T16:24:57.018Z,36.42
2018-03-04T16:27:25.600Z,36.60
2018-03-04T16:29:53.143Z,36.69
2018-03-04T16:32:20.683Z,36.91
2018-03-04T16:34:48.202Z,36.74
2018-03-04T16:37:15.840Z,37.03
2018-03-04T16:39:43.390Z,36.94
2018-03-04T16:42:10.948Z,36.90
2018-03-04T16:44:38.586Z,36.86
2018-03-04T16:47:06.117Z,37.00
2018-03-04T16:49:33.660Z,37.34
2018-03-04T16:52:01.224Z,37.43
2018-03-04T16:54:28.813Z,37.18
2018-03-04T16:56:58.148Z,37.14
2018-03-04T16:59:25.700Z,37.20
2018-03-04T17:01:53.337Z,37.18
2018-03-04T17:04:20.925Z,37.08
2018-03-04T17:06:48.850Z,37.13
2018-03-04T17:09:16.531Z,37.21
2018-03-04T17:11:44.121Z,37.46
2018-03-04T17:14:11.944Z,37.51
2018-03-04T17:16:39.512Z,37.42
2018-03-04T17:19:07.074Z,37.12
2018-03-04T17:21:34.614Z,37.25
2018-03-04T17:24:02.192Z,37.16
2018-03-04T17:26:30.059Z,37.42
2018-03-04T17:28:57.632Z,37.05
2018-03-04T17:31:25.227Z,37.12
2018-03-04T17:33:52.776Z,36.82
2018-03-04T17:36:20.318Z,36.84
2018-03-04T17:38:48.017Z,37.07
2018-03-04T17:41:15.595Z,36.86
2018-03-04T17:43:43.420Z,36.54
2018-03-04T17:46:10.980Z,36.75
2018-03-04T17:48:38.642Z,36.68
2018-03-04T17:51:06.196Z,36.56
2018-03-04T17:53:33.858Z,36.73
2018-03-04T17:56:01.407Z,36.74
2018-03-04T17:58:29.006Z,36.92
2018-03-04T18:00:56.575Z,37.03
2018-03-04T18:03:24.121Z,36.96
2018-03-04T18:05:51.651Z,36.83
2018-03-04T18:08:19.206Z,37.17
2018-03-04T18:10:46.777Z,36.88
2018-03-04T18:13:15.467Z,36.76
2018-03-04T18:15:43.073Z,36.50
2018-03-04T18:18:10.688Z,36.61
2018-03-04T18:20:38.242Z,36.74
2018-03-04T18:23:05.853Z,36.61
2018-03-04T18:25:33.373Z,36.66
2018-03-04T18:28:01.043Z,36.61
2018-03-04T18:30:28.642Z,36.65
2018-03-04T18:32:56.296Z,36.68
2018-03-04T18:35:23.871Z,36.60
2018-03-04T18:37:51.418Z,36.57
2018-03-04T18:40:20.575Z,36.55
2018-03-04T18:42:48.131Z,36.77
2018-03-04T18:45:15.733Z,36.63
2018-03-04T18:47:43.324Z,36.97
2018-03-04T18:50:10.850Z,36.72
2018-03-04T18:52:38.366Z,36.71
2018-03-04T18:55:05.943Z,36.99
2018-03-04T18:57:33.511Z,36.90
2018-03-04T19:00:01.092Z,37.04
2018-03-04T19:02:28.656Z,37.05
2018-03-04T19:04:56.335Z,36.87
2018-03-04T19:07:23.906Z,37.19
2018-03-04T19:09:51.466Z,37.28
2018-03-04T19:12:19.062Z,37.19
2018-03-04T19:14:46.627Z,37.44
2018-03-04T19:17:14.172Z,37.55
2018-03-04T19:19:41.778Z,37.73
2018-03-04T19:22:09.290Z,37.73
2018-03-04T19:24:36.890Z,37.71
2018-03-04T19:27:04.421Z,37.84
2018-03-04T19:29:31.997Z,37.85
2018-03-04T19:31:59.958Z,37.96
2018-03-04T19:34:27.529Z,38.06
2018-03-04T19:36:55.181Z,38.16
2018-03-04T19:39:22.753Z,38.19
2018-03-04T19:41:50.420Z,38.28
2018-03-04T19:44:18.084Z,38.44
2018-03-04T19:46:45.674Z,38.35
2018-03-04T19:49:13.255Z,38.54
2018-03-04T19:51:40.857Z,38.63
2018-03-04T19:54:08.466Z,38.75
2018-03-04T19:56:37.014Z,38.64
2018-03-04T19:59:04.659Z,38.73
2018-03-04T20:01:32.204Z,38.79
2018-03-04T20:03:59.860Z,38.69
2018-03-04T20:06:27.443Z,38.79
2018-03-04T20:08:55.027Z,38.86
2018-03-04T20:11:22.565Z,38.88
2018-03-04T20:13:50.139Z,38.80
2018-03-04T20:16:17.686Z,39.16
2018-03-04T20:18:45.246Z,39.03
2018-03-04T20:21:12.997Z,39.12
2018-03-04T20:23:40.570Z,39.13
2018-03-04T20:26:08.529Z,39.25
2018-03-04T20:28:36.523Z,39.37
2018-03-04T20:31:04.297Z,39.33
2018-03-04T20:33:34.869Z,39.36
2018-03-04T20:36:02.556Z,39.56
2018-03-04T20:38:30.218Z,39.57
2018-03-04T20:40:57.764Z,39.78
2018-03-04T20:43:25.309Z,39.87
2018-03-04T20:45:52.934Z,39.90
2018-03-04T20:48:20.567Z,39.94
2018-03-04T20:50:48.111Z,40.08
2018-03-04T20:53:15.636Z,39.95
2018-03-04T20:55:43.208Z,40.17
2018-03-04T20:58:10.803Z,40.13
2018-03-04T21:00:38.401Z,40.23
2018-03-04T21:03:05.942Z,40.23
2018-03-04T21:05:33.479Z,40.37
2018-03-04T21:08:01.282Z,40.45
2018-03-04T21:10:28.835Z,40.63
2018-03-04T21:12:57.769Z,40.63
2018-03-04T21:15:25.513Z,40.50
2018-03-04T21:17:53.065Z,40.58
2018-03-04T21:20:22.538Z,40.50
2018-03-04T21:22:50.099Z,40.44
2018-03-04T21:25:17.672Z,40.46
2018-03-04T21:27:45.471Z,40.48
2018-03-04T21:30:13.030Z,40.52
2018-03-04T21:32:40.667Z,40.64
2018-03-04T21:35:18.670Z,40.71
2018-03-04T21:37:46.186Z,40.95
2018-03-04T21:40:14.044Z,40.95
2018-03-04T21:42:41.577Z,40.92
2018-03-04T21:45:09.097Z,41.05
2018-03-04T21:47:36.701Z,41.22
2018-03-04T21:50:04.414Z,41.19
2018-03-04T21:52:31.966Z,41.07
2018-03-04T21:54:59.514Z,41.22
2018-03-04T21:57:27.066Z,41.10
2018-03-04T21:59:54.674Z,41.18
2018-03-04T22:02:23.061Z,41.29
2018-03-04T22:04:50.774Z,41.57
2018-03-04T22:07:18.302Z,41.59
2018-03-04T22:09:45.960Z,41.51
2018-03-04T22:12:13.481Z,41.69
2018-03-04T22:14:41.041Z,41.96
2018-03-04T22:17:08.600Z,41.68
2018-03-04T22:19:36.200Z,41.85
2018-03-04T22:22:03.721Z,41.83
2018-03-04T22:24:31.279Z,41.89
2018-03-04T22:26:58.843Z,41.95
2018-03-04T22:29:26.394Z,41.93
2018-03-04T22:31:53.935Z,42.10
2018-03-04T22:34:23.155Z,42.13
2018-03-04T22:36:50.741Z,42.10
2018-03-04T22:39:18.266Z,42.17
2018-03-04T22:41:45.849Z,42.40
2018-03-04T22:44:13.403Z,42.29
2018-03-04T22:46:41.216Z,42.35
2018-03-04T22:49:08.778Z,42.56
2018-03-04T22:51:36.464Z,42.59
2018-03-04T22:54:04.023Z,42.31
2018-03-04T22:56:31.770Z,42.43
2018-03-04T22:58:59.387Z,42.48
2018-03-04T23:01:27.049Z,42.54
2018-03-04T23:03:54.746Z,42.45
2018-03-04T23:06:22.313Z,42.56
2018-03-04T23:08:50.177Z,42.66
2018-03-04T23:11:17.822Z,42.62
2018-03-04T23:13:45.414Z,42.87
2018-03-04T23:16:12.989Z,42.79
2018-03-04T23:18:40.540Z,42.69
2018-03-04T23:21:09.478Z,42.75
2018-03-04T23:23:37.073Z,42.85
2018-03-04T23:26:04.952Z,43.00
2018-03-04T23:28:32.475Z,43.15
2018-03-04T23:31:00.023Z,43.12
2018-03-04T23:33:27.617Z,43.06
2018-03-04T23:35:55.168Z,43.23
2018-03-04T23:38:22.698Z,43.23
2018-03-04T23:40:50.524Z,43.27
2018-03-04T23:43:18.058Z,43.24
2018-03-04T23:45:45.846Z,43.29
2018-03-04T23:48:13.416Z,43.38
2018-03-04T23:50:40.975Z,43.39
2018-03-04T23:53:08.535Z,43.47
2018-03-04T23:55:36.394Z,43.58
2018-03-04T23:58:03.950Z,43.47
